Time;durP1;ratioP1;P1;durP2;ratioP2;P2;SDS_P1;SDS_P2;PMS_P1;PMS_P2;Temp;Humidity;BMP_temperature;BMP_pressure;BME280_temperature;BME280_humidity;BME280_pressure;Samples;Min_cycle;Max_cycle;Signal;HPM_P1;HPM_P2
2023/04/04 00:01:16;;;;;;;1.10;0.60;;;;;;;8.22;79.07;92490.84;5065373;28;20044;-71
2023/04/04 00:03:42;;;;;;;0.75;0.60;;;;;;;8.26;78.93;92493.63;5065380;28;20100;-71
2023/04/04 00:06:07;;;;;;;0.95;0.65;;;;;;;8.21;78.78;92494.63;5065342;28;20073;-72
2023/04/04 00:08:33;;;;;;;1.25;0.80;;;;;;;8.20;78.76;92501.00;5065445;28;20029;-71
2023/04/04 00:11:00;;;;;;;1.05;0.75;;;;;;;8.19;78.96;92504.78;5065022;28;20037;-72
2023/04/04 00:13:25;;;;;;;1.15;0.80;;;;;;;8.13;78.91;92503.47;5065288;28;20027;-72
2023/04/04 00:15:51;;;;;;;3.50;1.13;;;;;;;8.12;79.27;92515.97;5065084;28;20021;-72
2023/04/04 00:18:17;;;;;;;1.63;0.90;;;;;;;8.17;79.08;92521.03;5065126;28;20070;-72
2023/04/04 00:20:42;;;;;;;1.52;0.90;;;;;;;8.22;79.31;92504.91;5063792;28;20029;-72
2023/04/04 00:23:09;;;;;;;1.75;0.90;;;;;;;8.24;79.15;92504.56;5064871;28;20028;-72
2023/04/04 00:25:35;;;;;;;1.02;0.80;;;;;;;8.27;79.28;92508.44;5064842;28;20052;-72
2023/04/04 00:28:01;;;;;;;1.30;0.90;;;;;;;8.29;79.36;92499.03;5064922;28;20028;-72
2023/04/04 00:30:27;;;;;;;3.20;1.40;;;;;;;8.28;79.51;92494.06;5064967;28;20095;-72
2023/04/04 00:32:52;;;;;;;1.95;1.20;;;;;;;8.25;79.42;92484.88;5063804;28;20033;-72
2023/04/04 00:35:18;;;;;;;12.73;1.35;;;;;;;8.27;79.83;92495.19;5065068;28;20043;-73
2023/04/04 00:37:43;;;;;;;2.13;1.38;;;;;;;8.27;79.88;92487.22;5064640;28;20025;-72
2023/04/04 00:40:09;;;;;;;6.03;1.60;;;;;;;8.29;79.90;92479.69;5064704;28;20039;-72
2023/04/04 00:42:34;;;;;;;2.65;1.70;;;;;;;8.34;80.07;92474.91;5064909;28;20063;-72
2023/04/04 00:45:00;;;;;;;2.35;1.55;;;;;;;8.32;80.05;92489.63;5064559;28;20040;-72
2023/04/04 00:47:29;;;;;;;2.95;1.75;;;;;;;8.28;80.20;92472.81;5064800;28;20087;-72
2023/04/04 00:49:55;;;;;;;3.35;1.73;;;;;;;8.31;80.45;92474.81;5064576;28;20021;-72
2023/04/04 00:52:20;;;;;;;3.47;2.13;;;;;;;8.23;80.49;92468.50;5064604;28;20084;-72
2023/04/04 00:54:46;;;;;;;3.75;2.00;;;;;;;8.26;80.74;92472.38;5064514;28;20029;-72
2023/04/04 00:57:11;;;;;;;3.40;2.40;;;;;;;8.28;80.73;92470.16;5064345;28;20070;-72
2023/04/04 00:59:37;;;;;;;3.33;2.28;;;;;;;8.33;80.89;92462.00;5064227;28;20033;-72
2023/04/04 01:02:03;;;;;;;4.88;2.30;;;;;;;8.33;80.84;92475.28;5064257;28;20024;-72
2023/04/04 01:04:29;;;;;;;5.50;2.25;;;;;;;8.34;80.52;92482.13;5064262;28;20029;-72
2023/04/04 01:06:55;;;;;;;3.33;2.30;;;;;;;8.39;80.92;92487.97;5064450;28;20075;-72
2023/04/04 01:09:21;;;;;;;2.40;1.80;;;;;;;8.35;80.63;92478.38;5064163;28;20373;-72
2023/04/04 01:11:47;;;;;;;3.05;2.15;;;;;;;8.38;80.45;92493.63;5064276;28;20104;-71
2023/04/04 01:14:12;;;;;;;4.22;2.40;;;;;;;8.37;80.70;92484.88;5063938;28;20025;-72
2023/04/04 01:16:39;;;;;;;4.72;2.20;;;;;;;8.42;80.79;92491.88;5064011;28;20021;-72
2023/04/04 01:19:08;;;;;;;3.95;2.63;;;;;;;8.46;80.88;92479.47;5063615;28;20025;-72
2023/04/04 01:21:35;;;;;;;5.60;2.83;;;;;;;8.47;81.02;92482.91;5063915;28;20048;-72
2023/04/04 01:24:04;;;;;;;4.40;2.75;;;;;;;8.47;80.97;92481.03;5063877;28;20108;-72
2023/04/04 01:26:30;;;;;;;3.38;2.45;;;;;;;8.50;80.90;92479.59;5063832;28;20024;-72
2023/04/04 01:28:58;;;;;;;4.65;2.63;;;;;;;8.55;81.17;92482.03;5063695;28;20025;-72
2023/04/04 01:31:37;;;;;;;3.05;1.80;;;;;;;8.56;80.43;92484.34;5063733;28;20139;-72
2023/04/04 01:34:06;;;;;;;4.70;2.05;;;;;;;8.52;79.98;92472.84;5062563;28;20094;-72
2023/04/04 01:36:48;;;;;;;2.38;1.38;;;;;;;8.46;78.67;92470.75;5063709;28;20016;-72
2023/04/04 01:39:23;;;;;;;1.55;1.10;;;;;;;8.47;78.58;92470.44;5063353;28;20017;-72
2023/04/04 01:41:50;;;;;;;1.52;0.70;;;;;;;8.46;78.53;92462.78;5063481;28;20039;-72
2023/04/04 01:44:17;;;;;;;2.25;1.08;;;;;;;8.46;78.35;92471.53;5063345;28;20028;-72
2023/04/04 01:46:43;;;;;;;3.22;0.90;;;;;;;8.46;78.16;92457.47;5063554;28;20021;-72
2023/04/04 01:49:08;;;;;;;2.78;1.10;;;;;;;8.45;78.30;92456.72;5063349;28;20052;-72
2023/04/04 01:51:34;;;;;;;1.30;0.80;;;;;;;8.40;78.21;92449.69;5063300;28;20088;-72
2023/04/04 01:53:59;;;;;;;2.33;0.80;;;;;;;8.39;78.37;92436.78;5063378;28;20426;-72
2023/04/04 01:56:25;;;;;;;2.47;0.90;;;;;;;8.37;78.23;92439.75;5063609;28;20037;-72
2023/04/04 01:58:52;;;;;;;1.80;0.88;;;;;;;8.34;78.16;92434.31;5063299;28;20381;-72
2023/04/04 02:01:18;;;;;;;2.25;0.98;;;;;;;8.29;78.27;92429.25;5063110;28;20029;-72
2023/04/04 02:03:44;;;;;;;1.83;0.85;;;;;;;8.28;78.37;92441.72;5063064;28;20024;-71
2023/04/04 02:06:09;;;;;;;2.42;1.17;;;;;;;8.29;78.30;92445.19;5062990;28;20021;-72
2023/04/04 02:08:35;;;;;;;2.38;1.40;;;;;;;8.25;78.48;92442.41;5063114;28;20044;-71
2023/04/04 02:11:00;;;;;;;1.90;1.20;;;;;;;8.23;78.32;92440.09;5063144;28;20013;-70
2023/04/04 02:13:26;;;;;;;3.22;1.80;;;;;;;8.19;78.54;92443.75;5063113;28;20395;-71
2023/04/04 02:15:52;;;;;;;3.20;1.55;;;;;;;8.16;78.92;92439.88;5062981;28;20013;-71
2023/04/04 02:18:18;;;;;;;2.35;1.40;;;;;;;8.09;78.75;92437.00;5062952;28;20160;-71
2023/04/04 02:20:43;;;;;;;1.48;0.85;;;;;;;8.09;78.85;92447.59;5062947;28;20067;-71
2023/04/04 02:23:09;;;;;;;3.03;0.93;;;;;;;8.07;78.89;92439.19;5063231;28;20051;-71
2023/04/04 02:25:34;;;;;;;1.42;0.95;;;;;;;8.05;79.09;92428.16;5062838;28;20055;-71
2023/04/04 02:28:00;;;;;;;1.88;0.90;;;;;;;8.08;79.02;92438.13;5062805;28;20017;-71
2023/04/04 02:30:25;;;;;;;1.80;0.90;;;;;;;8.07;79.00;92441.09;5063099;28;20013;-71
2023/04/04 02:32:51;;;;;;;2.63;1.10;;;;;;;8.06;79.61;92435.00;5062738;28;20021;-71
2023/04/04 02:35:17;;;;;;;1.25;0.75;;;;;;;8.04;79.59;92435.34;5062793;28;20025;-71
2023/04/04 02:37:48;;;;;;;1.80;0.80;;;;;;;8.02;79.76;92436.78;5062697;28;20032;-71
2023/04/04 02:40:14;;;;;;;4.50;1.30;;;;;;;7.98;80.14;92436.66;5062728;28;20029;-71
2023/04/04 02:42:43;;;;;;;2.30;1.27;;;;;;;8.00;80.27;92447.72;5062756;28;20323;-71
2023/04/04 02:45:10;;;;;;;2.22;1.25;;;;;;;8.00;80.08;92437.09;5062602;28;20025;-72
2023/04/04 02:47:36;;;;;;;2.28;1.30;;;;;;;8.02;79.89;92439.44;5062719;28;20319;-72
2023/04/04 02:50:02;;;;;;;4.63;1.10;;;;;;;8.05;79.83;92446.72;5062557;28;20088;-72
2023/04/04 02:52:28;;;;;;;1.83;0.98;;;;;;;8.03;79.76;92441.72;5062643;28;20044;-72
2023/04/04 02:54:54;;;;;;;1.50;0.90;;;;;;;8.07;79.50;92447.16;5062745;28;20077;-72
2023/04/04 02:57:20;;;;;;;3.53;1.10;;;;;;;7.97;79.39;92442.28;5064896;28;20071;-72
2023/04/04 02:59:45;;;;;;;1.55;0.73;;;;;;;7.96;79.52;92440.75;5066695;28;20029;-72
2023/04/04 03:02:11;;;;;;;1.25;0.75;;;;;;;7.95;79.73;92436.53;5066707;28;20067;-72
2023/04/04 03:04:36;;;;;;;2.58;0.90;;;;;;;7.93;79.79;92441.41;5066416;28;20262;-73
2023/04/04 03:07:02;;;;;;;1.67;0.80;;;;;;;7.94;80.15;92433.13;5066614;28;20036;-72
2023/04/04 03:09:28;;;;;;;1.80;0.90;;;;;;;7.89;79.99;92443.16;5066691;28;20021;-73
2023/04/04 03:11:54;;;;;;;2.33;0.95;;;;;;;7.83;79.96;92447.91;5066394;28;20027;-72
2023/04/04 03:14:19;;;;;;;3.22;1.05;;;;;;;7.91;80.16;92460.31;5066160;28;20091;-72
2023/04/04 03:16:48;;;;;;;2.92;1.20;;;;;;;7.90;80.68;92452.69;5066505;28;20017;-71
2023/04/04 03:20:06;;;;;;;2.63;1.35;;;;;;;7.76;80.68;92461.72;5066134;28;20352;-72
2023/04/04 03:22:32;;;;;;;4.78;1.80;;;;;;;7.71;80.65;92455.84;5065045;28;20032;-72
2023/04/04 03:24:57;;;;;;;7.35;2.47;;;;;;;7.72;80.76;92457.41;5065377;28;20043;-72
2023/04/04 03:27:22;;;;;;;6.30;2.53;;;;;;;7.74;80.61;92450.66;5065048;28;20029;-72
2023/04/04 03:29:48;;;;;;;6.40;2.90;;;;;;;7.73;81.02;92459.72;5065740;28;20033;-72
2023/04/04 03:32:13;;;;;;;6.60;3.70;;;;;;;7.61;81.57;92467.66;5066096;28;20084;-71
2023/04/04 03:34:39;;;;;;;5.53;3.00;;;;;;;7.36;82.92;92459.63;5066179;28;20315;-72
2023/04/04 03:37:04;;;;;;;5.55;2.50;;;;;;;7.25;83.21;92466.44;5066088;28;20020;-72
2023/04/04 03:39:30;;;;;;;4.65;2.63;;;;;;;7.15;83.99;92477.44;5065819;28;20045;-72
2023/04/04 03:41:57;;;;;;;6.95;2.03;;;;;;;7.05;84.68;92469.91;5065810;28;20312;-71
2023/04/04 03:44:22;;;;;;;6.38;3.55;;;;;;;7.03;84.90;92468.34;5064463;28;20036;-72
2023/04/04 03:46:48;;;;;;;6.95;2.45;;;;;;;7.02;84.83;92468.66;5065987;28;20029;-72
2023/04/04 03:49:13;;;;;;;3.38;2.40;;;;;;;6.99;85.11;92466.66;5065792;28;20033;-72
2023/04/04 03:51:39;;;;;;;3.45;2.38;;;;;;;6.93;85.14;92463.44;5065590;28;20028;-72
2023/04/04 03:54:04;;;;;;;5.68;2.70;;;;;;;6.95;85.53;92477.13;5065638;28;20028;-72
2023/04/04 03:56:31;;;;;;;7.35;3.42;;;;;;;6.94;85.68;92472.94;5065297;28;20040;-72
2023/04/04 03:58:57;;;;;;;6.45;2.80;;;;;;;6.99;85.96;92467.44;5065655;28;20021;-73
2023/04/04 04:01:22;;;;;;;4.63;2.88;;;;;;;7.05;85.54;92467.25;5065395;28;20025;-73
2023/04/04 04:03:48;;;;;;;4.35;2.25;;;;;;;7.09;85.24;92460.97;5065590;28;20289;-73
2023/04/04 04:06:13;;;;;;;5.15;2.47;;;;;;;7.00;84.68;92468.19;5065512;28;20066;-72
2023/04/04 04:08:39;;;;;;;4.03;2.17;;;;;;;7.00;84.27;92462.91;5065137;28;20020;-71
2023/04/04 04:11:05;;;;;;;5.53;2.22;;;;;;;6.96;84.52;92460.16;5065153;28;20091;-71
2023/04/04 04:13:30;;;;;;;3.67;1.90;;;;;;;6.95;84.39;92468.41;5065291;28;20051;-71
2023/04/04 04:15:56;;;;;;;3.92;2.33;;;;;;;6.97;84.46;92469.63;5065296;28;20029;-71
2023/04/04 04:18:21;;;;;;;4.32;2.45;;;;;;;7.02;84.20;92469.44;5065181;28;20211;-71
2023/04/04 04:20:47;;;;;;;4.97;3.15;;;;;;;7.14;84.50;92468.69;5065018;28;20029;-71
2023/04/04 04:23:12;;;;;;;6.25;2.92;;;;;;;7.22;83.97;92472.38;5064868;28;20035;-71
2023/04/04 04:25:38;;;;;;;5.68;3.15;;;;;;;7.25;83.91;92471.75;5065038;28;20024;-71
2023/04/04 04:28:03;;;;;;;5.78;3.78;;;;;;;7.34;84.26;92469.00;5063825;28;20017;-71
2023/04/04 04:30:29;;;;;;;6.50;3.22;;;;;;;7.42;83.92;92481.41;5065153;28;20314;-71
2023/04/04 04:32:55;;;;;;;8.40;3.90;;;;;;;7.51;83.96;92486.63;5065104;28;20025;-71
2023/04/04 04:35:20;;;;;;;6.30;4.35;;;;;;;7.51;83.96;92479.47;5064758;28;20063;-71
2023/04/04 04:37:46;;;;;;;6.70;4.05;;;;;;;7.63;84.11;92478.69;5064656;28;20025;-71
2023/04/04 04:40:13;;;;;;;7.53;4.30;;;;;;;7.72;83.63;92484.69;5064598;28;20056;-71
2023/04/04 04:42:44;;;;;;;8.77;4.25;;;;;;;7.80;83.68;92491.78;5064587;28;20032;-72
2023/04/04 04:45:10;;;;;;;6.07;3.63;;;;;;;7.83;82.89;92501.72;5064851;28;20193;-70
2023/04/04 04:47:36;;;;;;;6.50;3.90;;;;;;;7.84;82.36;92498.00;5063440;28;20052;-71
2023/04/04 04:50:01;;;;;;;6.72;3.15;;;;;;;7.82;82.31;92508.16;5064440;28;20119;-71
2023/04/04 04:52:28;;;;;;;6.07;2.90;;;;;;;7.80;82.49;92505.06;5064714;28;20335;-72
2023/04/04 04:54:54;;;;;;;5.68;3.78;;;;;;;7.82;82.50;92510.81;5064548;28;20094;-71
2023/04/04 04:57:20;;;;;;;7.20;4.38;;;;;;;7.74;81.97;92506.38;5063049;28;20051;-71
2023/04/04 04:59:45;;;;;;;6.05;3.38;;;;;;;7.66;82.15;92506.47;5064259;28;20335;-71
2023/04/04 05:02:11;;;;;;;7.38;3.35;;;;;;;7.64;82.57;92504.13;5064330;28;20201;-72
2023/04/04 05:04:36;;;;;;;8.93;3.33;;;;;;;7.63;82.60;92513.97;5064276;28;20024;-72
2023/04/04 05:07:02;;;;;;;5.28;3.25;;;;;;;7.62;82.77;92515.06;5064053;28;20025;-72
2023/04/04 05:09:27;;;;;;;4.53;2.90;;;;;;;7.77;82.43;92524.25;5064215;28;20099;-71
2023/04/04 05:11:53;;;;;;;9.38;3.13;;;;;;;7.88;82.69;92521.22;5064062;28;20024;-71
2023/04/04 05:14:19;;;;;;;7.97;4.63;;;;;;;7.91;82.58;92518.66;5064099;28;20350;-71
2023/04/04 05:16:44;;;;;;;8.32;4.28;;;;;;;7.96;82.21;92525.66;5064103;28;20063;-71
2023/04/04 05:19:09;;;;;;;8.82;4.95;;;;;;;7.97;82.08;92533.28;5063206;28;20025;-72
2023/04/04 05:21:35;;;;;;;8.70;4.72;;;;;;;8.01;82.47;92533.41;5063844;28;20024;-72
2023/04/04 05:24:01;;;;;;;6.50;4.22;;;;;;;8.09;82.69;92534.41;5063849;28;20254;-72
2023/04/04 05:26:28;;;;;;;10.25;5.30;;;;;;;8.17;83.09;92529.00;5063987;28;20037;-71
2023/04/04 05:28:54;;;;;;;8.65;4.43;;;;;;;8.30;82.26;92539.63;5063856;28;20022;-72
2023/04/04 05:31:20;;;;;;;7.75;4.68;;;;;;;8.42;81.87;92534.34;5063687;28;20017;-72
2023/04/04 05:33:45;;;;;;;9.10;5.00;;;;;;;8.54;81.30;92542.31;5063708;28;20020;-72
2023/04/04 05:36:11;;;;;;;8.90;4.57;;;;;;;8.57;80.16;92541.69;5063538;28;20058;-71
2023/04/04 05:38:38;;;;;;;7.95;4.90;;;;;;;8.62;79.90;92530.81;5063447;28;20025;-71
2023/04/04 05:41:03;;;;;;;8.10;4.57;;;;;;;8.68;79.97;92543.88;5063507;28;20021;-72
2023/04/04 05:43:28;;;;;;;8.35;4.88;;;;;;;8.76;80.06;92540.34;5062376;28;20027;-71
2023/04/04 05:45:54;;;;;;;8.65;4.93;;;;;;;8.79;79.82;92550.28;5062332;28;20028;-72
2023/04/04 05:48:19;;;;;;;8.10;5.45;;;;;;;8.82;80.10;92544.31;5063320;28;20017;-72
2023/04/04 05:50:46;;;;;;;14.73;5.60;;;;;;;8.86;80.52;92542.53;5063281;28;20013;-72
2023/04/04 05:53:11;;;;;;;10.65;6.38;;;;;;;8.86;80.24;92550.53;5063152;28;20016;-72
2023/04/04 05:55:36;;;;;;;9.27;5.63;;;;;;;8.95;80.34;92553.06;5061965;28;20311;-72
2023/04/04 05:58:02;;;;;;;10.88;6.63;;;;;;;8.90;80.33;92551.41;5062684;28;20102;-71
2023/04/04 06:00:28;;;;;;;11.27;7.47;;;;;;;8.88;80.18;92547.53;5063201;28;20024;-72
2023/04/04 06:02:57;;;;;;;15.85;8.63;;;;;;;8.75;80.00;92554.72;5061929;28;20025;-72
2023/04/04 06:05:23;;;;;;;13.27;7.93;;;;;;;8.78;80.09;92554.06;5062857;28;20029;-72
2023/04/04 06:07:49;;;;;;;14.10;8.50;;;;;;;8.90;80.62;92545.31;5062886;28;20155;-72
2023/04/04 06:10:14;;;;;;;14.88;8.32;;;;;;;8.95;80.18;92553.06;5062832;28;20013;-72
2023/04/04 06:12:40;;;;;;;18.80;9.85;;;;;;;8.83;79.42;92562.59;5062759;28;20096;-71
2023/04/04 06:15:06;;;;;;;21.73;11.00;;;;;;;8.87;79.73;92562.69;5063048;28;20017;-70
2023/04/04 06:17:31;;;;;;;15.35;8.45;;;;;;;8.88;80.50;92564.25;5062917;28;20341;-71
2023/04/04 06:19:57;;;;;;;13.77;7.85;;;;;;;8.95;80.22;92561.78;5062831;28;20088;-70
2023/04/04 06:22:23;;;;;;;11.88;7.07;;;;;;;8.93;79.79;92571.97;5062746;28;20025;-71
2023/04/04 06:24:48;;;;;;;9.98;6.68;;;;;;;8.91;79.29;92576.09;5062815;28;20323;-70
2023/04/04 06:27:13;;;;;;;12.18;5.97;;;;;;;8.86;79.39;92571.78;5062722;28;20127;-71
2023/04/04 06:29:39;;;;;;;8.95;5.80;;;;;;;8.92;80.00;92567.78;5062697;28;20378;-73
2023/04/04 06:32:04;;;;;;;8.30;5.07;;;;;;;8.88;79.34;92579.41;5060486;28;20025;-72
2023/04/04 06:34:30;;;;;;;8.02;4.93;;;;;;;8.86;79.30;92582.41;5062332;28;20039;-72
2023/04/04 06:36:56;;;;;;;11.60;6.03;;;;;;;8.71;79.91;92577.75;5062673;28;20035;-72
2023/04/04 06:39:21;;;;;;;13.20;6.55;;;;;;;8.68;81.40;92581.84;5062267;28;20082;-69
2023/04/04 06:41:47;;;;;;;10.18;6.35;;;;;;;8.66;81.86;92591.25;5062796;28;20020;-70
2023/04/04 06:44:13;;;;;;;9.35;5.38;;;;;;;8.60;81.20;92596.00;5062452;28;20024;-68
2023/04/04 06:46:39;;;;;;;6.30;4.45;;;;;;;8.37;80.46;92609.66;5062351;28;20027;-68
2023/04/04 06:49:05;;;;;;;3.97;2.40;;;;;;;7.97;79.60;92628.78;5062433;28;20074;-68
2023/04/04 06:51:32;;;;;;;4.10;1.85;;;;;;;7.54;79.24;92631.81;5062157;28;20021;-67
2023/04/04 06:53:59;;;;;;;3.03;1.40;;;;;;;6.99;79.51;92630.91;5062465;28;20193;-68
2023/04/04 06:56:25;;;;;;;3.45;1.40;;;;;;;6.68;81.00;92631.22;5062406;28;20041;-69
2023/04/04 06:58:51;;;;;;;4.45;1.33;;;;;;;6.39;80.85;92630.06;5062494;28;20275;-68
2023/04/04 07:01:19;;;;;;;5.57;1.70;;;;;;;6.22;81.95;92646.75;5062256;28;20029;-70
2023/04/04 07:03:44;;;;;;;8.63;1.33;;;;;;;5.93;82.00;92663.28;5062319;28;20031;-70
2023/04/04 07:06:10;;;;;;;2.38;1.10;;;;;;;5.74;82.08;92669.66;5062281;28;20041;-69
2023/04/04 07:08:35;;;;;;;3.65;0.88;;;;;;;5.42;80.85;92676.19;5062550;28;20215;-70
2023/04/04 07:11:01;;;;;;;3.25;1.00;;;;;;;5.34;81.76;92688.28;5062270;28;20089;-71
2023/04/04 07:13:27;;;;;;;4.20;1.80;;;;;;;5.13;82.60;92693.38;5062457;28;20025;-70
2023/04/04 07:15:52;;;;;;;2.25;1.50;;;;;;;5.01;83.45;92704.53;5062245;28;20040;-70
2023/04/04 07:18:17;;;;;;;2.95;0.88;;;;;;;5.00;83.08;92702.97;5062358;28;20366;-72
2023/04/04 07:20:45;;;;;;;2.30;1.23;;;;;;;4.95;83.41;92705.75;5061927;28;20048;-71
2023/04/04 07:23:10;;;;;;;2.03;0.98;;;;;;;4.77;83.52;92706.78;5062257;28;20036;-69
2023/04/04 07:25:37;;;;;;;2.80;1.20;;;;;;;4.73;83.73;92716.38;5062346;28;20095;-70
2023/04/04 07:28:02;;;;;;;4.72;1.25;;;;;;;4.65;84.03;92712.63;5062321;28;20021;-69
2023/04/04 07:30:31;;;;;;;7.43;1.25;;;;;;;4.63;84.17;92715.53;5062444;28;20017;-70
2023/04/04 07:33:00;;;;;;;6.07;1.35;;;;;;;4.75;84.62;92724.78;5062209;28;20021;-69
2023/04/04 07:35:26;;;;;;;1.95;1.10;;;;;;;4.79;84.74;92736.28;5062239;28;20039;-70
2023/04/04 07:37:52;;;;;;;2.88;1.20;;;;;;;4.68;82.92;92729.69;5062259;28;20035;-69
2023/04/04 07:40:18;;;;;;;4.00;1.20;;;;;;;4.61;82.57;92738.81;5061139;28;20021;-71
2023/04/04 07:42:49;;;;;;;1.20;0.60;;;;;;;4.47;81.27;92738.13;5063537;28;20092;-71
2023/04/04 07:45:16;;;;;;;3.03;1.08;;;;;;;4.37;81.56;92749.69;5065883;28;20211;-69
2023/04/04 07:47:45;;;;;;;2.70;0.80;;;;;;;4.12;79.79;92748.47;5065779;28;20017;-70
2023/04/04 07:50:12;;;;;;;2.13;0.88;;;;;;;3.97;80.59;92756.72;5065647;28;20042;-70
2023/04/04 07:52:38;;;;;;;3.38;0.80;;;;;;;3.84;79.58;92760.19;5065590;28;20223;-69
2023/04/04 07:55:06;;;;;;;1.42;0.80;;;;;;;3.72;79.61;92773.88;5065587;28;20028;-70
2023/04/04 07:57:31;;;;;;;2.42;0.60;;;;;;;3.66;79.79;92791.63;5065512;28;20112;-69
2023/04/04 07:59:57;;;;;;;1.00;0.60;;;;;;;3.68;79.75;92775.53;5065729;28;20021;-69
2023/04/04 08:02:22;;;;;;;0.60;0.43;;;;;;;3.68;78.60;92765.00;5065318;28;20021;-68
2023/04/04 08:04:48;;;;;;;1.70;0.90;;;;;;;3.65;79.30;92776.91;5097874;28;20188;-68
2023/04/04 08:07:13;;;;;;;2.83;0.93;;;;;;;3.66;78.91;92782.97;5065457;28;20032;-68
2023/04/04 08:09:39;;;;;;;1.20;0.70;;;;;;;3.73;78.58;92799.16;5065145;28;20048;-68
2023/04/04 08:12:05;;;;;;;3.85;1.45;;;;;;;3.65;77.90;92778.78;5064122;28;20020;-68
2023/04/04 08:14:30;;;;;;;4.72;1.55;;;;;;;3.57;78.85;92783.66;5065386;28;20223;-68
2023/04/04 08:16:56;;;;;;;2.33;1.00;;;;;;;3.58;79.56;92792.34;5065333;28;20091;-68
2023/04/04 08:19:22;;;;;;;2.78;1.73;;;;;;;3.61;79.97;92791.75;5065000;28;20024;-68
2023/04/04 08:21:47;;;;;;;2.63;1.10;;;;;;;3.54;78.81;92791.38;5065100;28;20036;-69
2023/04/04 08:24:13;;;;;;;1.35;0.60;;;;;;;3.53;78.65;92803.75;5064011;28;20025;-68
2023/04/04 08:26:38;;;;;;;1.00;0.60;;;;;;;3.35;77.86;92805.44;5065079;28;20303;-68
2023/04/04 08:29:04;;;;;;;1.30;0.77;;;;;;;3.35;79.79;92807.28;5065034;28;20032;-69
2023/04/04 08:31:29;;;;;;;2.50;0.75;;;;;;;3.19;78.02;92810.22;5064735;28;20013;-68
2023/04/04 08:33:55;;;;;;;2.42;0.98;;;;;;;3.19;79.18;92823.38;5064993;28;20067;-68
2023/04/04 08:36:21;;;;;;;1.67;0.63;;;;;;;3.13;78.91;92829.03;5064885;28;20021;-68
2023/04/04 08:38:47;;;;;;;2.03;0.80;;;;;;;3.13;79.34;92823.75;5064916;28;20021;-68
2023/04/04 08:41:14;;;;;;;3.75;1.10;;;;;;;3.10;80.01;92816.47;5064844;28;20350;-68
2023/04/04 08:43:42;;;;;;;12.73;1.15;;;;;;;3.15;78.81;92829.53;5064646;28;20063;-68
2023/04/04 08:46:10;;;;;;;10.88;2.85;;;;;;;3.20;78.79;92826.81;5063472;28;20027;-68
2023/04/04 08:48:38;;;;;;;30.55;7.57;;;;;;;3.32;78.77;92832.38;5064561;28;20037;-68
2023/04/04 08:51:03;;;;;;;8.63;2.50;;;;;;;3.36;78.23;92828.06;5064637;28;20342;-69
2023/04/04 08:53:33;;;;;;;7.65;1.17;;;;;;;3.45;78.66;92836.06;5063702;28;20029;-69
2023/04/04 08:55:59;;;;;;;4.03;1.05;;;;;;;3.44;78.70;92846.88;5064279;28;20074;-69
2023/04/04 08:58:25;;;;;;;4.07;1.20;;;;;;;3.30;77.77;92839.00;5064355;28;20053;-79
2023/04/04 09:00:54;;;;;;;1.33;0.75;;;;;;;3.38;78.69;92846.22;5064192;28;20319;-76
2023/04/04 09:03:25;;;;;;;1.25;0.82;;;;;;;3.32;78.52;92850.03;5064485;28;20307;-76
2023/04/04 09:05:52;;;;;;;2.17;0.70;;;;;;;3.16;77.67;92841.63;5062535;28;20185;-76
2023/04/04 09:08:18;;;;;;;2.58;0.75;;;;;;;3.13;77.02;92852.72;5062269;28;20032;-76
2023/04/04 09:10:44;;;;;;;2.92;0.90;;;;;;;3.17;77.76;92865.00;5063592;28;20025;-76
2023/04/04 09:13:10;;;;;;;2.20;0.70;;;;;;;3.17;78.25;92856.34;5062889;28;20025;-76
2023/04/04 09:15:42;;;;;;;1.48;0.73;;;;;;;3.17;77.56;92841.31;5062714;28;20028;-76
2023/04/04 09:18:08;;;;;;;2.40;0.80;;;;;;;3.10;78.23;92848.06;5063775;28;20013;-76
2023/04/04 09:20:43;;;;;;;2.13;1.00;;;;;;;3.19;78.38;92848.94;5063614;28;20027;-76
2023/04/04 09:23:11;;;;;;;2.03;0.95;;;;;;;3.16;77.85;92858.19;5064091;28;20021;-78
2023/04/04 09:25:37;;;;;;;3.25;1.00;;;;;;;3.13;76.93;92852.72;5063999;28;20031;-77
2023/04/04 09:28:04;;;;;;;1.35;0.80;;;;;;;3.11;76.86;92846.97;5063357;28;20120;-76
2023/04/04 09:30:31;;;;;;;1.48;0.70;;;;;;;3.20;78.59;92846.00;5061980;28;20025;-77
2023/04/04 09:33:00;;;;;;;6.03;1.70;;;;;;;3.16;76.88;92857.44;5062099;28;20024;-77
2023/04/04 09:35:26;;;;;;;1.50;0.80;;;;;;;3.07;76.33;92859.16;5062233;28;20025;-77
2023/04/04 09:37:52;;;;;;;1.70;0.88;;;;;;;2.98;77.20;92865.09;5062063;28;20467;-76
2023/04/04 09:40:17;;;;;;;1.15;0.68;;;;;;;2.95;77.50;92865.69;5062090;28;20075;-77
2023/04/04 09:42:43;;;;;;;3.08;1.00;;;;;;;2.86;77.78;92871.88;5062217;28;20102;-77
2023/04/04 09:45:09;;;;;;;1.73;0.82;;;;;;;2.90;80.05;92867.63;5063602;28;20040;-77
2023/04/04 09:47:40;;;;;;;1.70;0.90;;;;;;;2.79;78.09;92864.38;5063448;28;20033;-75
2023/04/04 09:50:06;;;;;;;2.03;1.15;;;;;;;2.75;79.40;92860.75;5063541;28;20044;-76
2023/04/04 09:52:35;;;;;;;4.22;0.95;;;;;;;2.86;80.21;92867.41;5063470;28;20070;-76
2023/04/04 09:55:03;;;;;;;2.00;1.08;;;;;;;2.89;80.14;92861.56;5063360;28;20021;-76
2023/04/04 09:57:33;;;;;;;2.15;0.90;;;;;;;2.89;78.18;92868.66;5063354;28;20090;-76
2023/04/04 10:00:01;;;;;;;2.53;0.75;;;;;;;2.86;78.62;92861.38;5063399;28;20048;-77
2023/04/04 10:02:29;;;;;;;1.92;1.10;;;;;;;2.97;79.41;92862.75;5063357;28;20028;-77
2023/04/04 10:04:56;;;;;;;1.85;0.85;;;;;;;3.07;78.70;92867.06;5063159;28;20096;-75
2023/04/04 10:07:26;;;;;;;3.03;1.10;;;;;;;3.20;79.45;92855.78;5063026;28;20059;-75
2023/04/04 10:09:52;;;;;;;7.25;2.35;;;;;;;3.31;78.74;92862.41;5063047;28;20048;-75
2023/04/04 10:12:23;;;;;;;5.28;2.38;;;;;;;3.40;78.83;92865.94;5063027;28;20027;-75
2023/04/04 10:14:55;;;;;;;6.90;2.30;;;;;;;3.49;78.12;92871.28;5063048;28;20029;-75
2023/04/04 10:17:21;;;;;;;5.70;2.72;;;;;;;3.68;78.90;92868.56;5063143;28;20091;-75
2023/04/04 10:19:47;;;;;;;4.47;1.88;;;;;;;3.89;79.85;92891.88;5062727;28;20033;-76
2023/04/04 10:22:14;;;;;;;2.75;1.50;;;;;;;3.93;76.10;92891.00;5062975;28;20096;-76
2023/04/04 10:24:39;;;;;;;4.60;2.03;;;;;;;3.89;75.96;92881.31;5063083;28;20055;-76
2023/04/04 10:27:05;;;;;;;4.78;1.83;;;;;;;3.90;74.80;92888.16;5062970;28;20025;-76
2023/04/04 10:29:31;;;;;;;3.42;1.33;;;;;;;3.98;76.09;92885.59;5062668;28;20092;-75
2023/04/04 10:32:05;;;;;;;2.30;1.40;;;;;;;3.97;74.49;92899.09;5062943;28;20315;-74
2023/04/04 10:34:40;;;;;;;3.33;1.30;;;;;;;4.01;74.09;92906.13;5062691;28;20017;-75
2023/04/04 10:37:19;;;;;;;1.08;0.80;;;;;;;3.81;72.55;92899.41;5062875;28;20025;-75
2023/04/04 10:40:12;;;;;;;2.08;1.10;;;;;;;3.68;73.30;92908.06;5062734;28;20062;-75
2023/04/04 10:42:40;;;;;;;2.17;1.15;;;;;;;3.66;74.33;92907.59;5062942;28;20029;-74
2023/04/04 10:45:09;;;;;;;2.00;0.90;;;;;;;3.51;73.89;92921.84;5062721;28;20184;-74
2023/04/04 10:47:35;;;;;;;1.52;0.73;;;;;;;3.58;74.67;92924.09;5062743;28;20031;-75
2023/04/04 10:50:06;;;;;;;2.15;1.05;;;;;;;3.47;73.71;92920.09;5062793;28;20279;-75
2023/04/04 10:52:33;;;;;;;1.48;0.90;;;;;;;3.48;74.67;92926.91;5062761;28;20029;-75
2023/04/04 10:55:05;;;;;;;6.03;1.17;;;;;;;3.53;74.11;92932.09;5062633;28;20221;-75
2023/04/04 10:57:32;;;;;;;2.42;1.20;;;;;;;3.55;71.86;92929.94;5062369;28;20051;-76
2023/04/04 11:00:00;;;;;;;2.33;1.15;;;;;;;3.44;71.97;92928.56;5062632;28;20033;-75
2023/04/04 11:03:00;;;;;;;4.90;1.30;;;;;;;3.39;72.34;92929.44;5062708;28;20032;-75
2023/04/04 11:05:32;;;;;;;2.28;1.23;;;;;;;3.31;73.13;92924.84;5062609;28;20036;-74
2023/04/04 11:08:03;;;;;;;4.28;1.48;;;;;;;3.22;72.53;92925.50;5062610;28;20049;-73
2023/04/04 11:13:58;;;;;;;2.80;1.52;;;;;;;3.13;72.67;92939.63;5050990;28;20071;-75
2023/04/04 11:16:24;;;;;;;1.92;1.23;;;;;;;3.12;74.35;92944.09;5062282;28;20052;-77
2023/04/04 11:18:51;;;;;;;3.47;1.80;;;;;;;3.19;73.17;92947.13;5065392;28;20032;-74
2023/04/04 11:21:26;;;;;;;2.97;1.48;;;;;;;3.08;73.82;92945.75;5066022;28;20025;-77
2023/04/04 11:23:51;;;;;;;1.65;1.02;;;;;;;3.00;73.56;92956.94;5066222;28;20079;-77
2023/04/04 11:26:40;;;;;;;5.63;1.60;;;;;;;3.09;72.56;92955.19;5065935;28;20029;-75
2023/04/04 11:29:07;;;;;;;2.42;1.30;;;;;;;3.04;73.39;92970.31;5066211;28;20029;-75
2023/04/04 11:31:39;;;;;;;3.58;1.58;;;;;;;2.97;73.74;92955.69;5066077;28;20031;-73
2023/04/04 11:34:07;;;;;;;5.00;2.40;;;;;;;2.89;73.88;92961.59;5065906;28;20040;-74
2023/04/04 11:36:39;;;;;;;2.67;1.60;;;;;;;2.85;72.92;92957.97;5066153;28;20029;-74
2023/04/04 11:39:24;;;;;;;3.05;2.03;;;;;;;2.84;72.81;92956.41;5065914;28;20020;-75
2023/04/04 11:42:10;;;;;;;6.55;1.80;;;;;;;2.91;73.01;92953.38;5065864;28;20106;-75
2023/04/04 11:44:41;;;;;;;1.98;1.35;;;;;;;2.81;73.10;92951.72;5065755;28;20013;-77